createdAt,value
2022-09-21T00:03:26.369Z,92902.38
2022-09-21T00:08:28.491Z,92901.69
2022-09-21T00:13:32.831Z,92883.84
2022-09-21T00:18:35.785Z,92907.81
2022-09-21T00:23:38.377Z,92910.69
2022-09-21T00:28:40.908Z,92924.03
2022-09-21T00:33:43.809Z,92894.63
2022-09-21T00:38:50.272Z,92908.47
2022-09-21T00:44:26.742Z,92915.56
2022-09-21T00:49:29.633Z,92921.38
2022-09-21T00:54:41.408Z,92913.94
2022-09-21T00:59:45.454Z,92900.25
2022-09-21T01:04:47.724Z,92908.88
2022-09-21T01:09:54.045Z,92875.25
2022-09-21T01:15:26.977Z,92891.19
2022-09-21T01:20:46.315Z,92894.06
2022-09-21T01:26:15.650Z,92894.41
2022-09-21T01:31:24.568Z,92892.56
2022-09-21T01:36:31.200Z,92889.56
2022-09-21T01:41:35.652Z,92896.25
2022-09-21T01:46:38.479Z,92882.94
2022-09-21T01:51:46.877Z,92886.84
2022-09-21T01:57:02.607Z,92894.91
2022-09-21T02:02:17.831Z,92850.69
2022-09-21T02:07:20.211Z,92877.78
2022-09-21T02:12:23.100Z,92876.94
2022-09-21T02:17:43.944Z,92881.78
2022-09-21T02:22:46.314Z,92874.78
2022-09-21T02:27:57.135Z,92876.38
2022-09-21T02:33:05.122Z,92861.72
2022-09-21T02:38:26.547Z,92864.59
2022-09-21T02:43:39.717Z,92858.25
2022-09-21T02:48:48.685Z,92846.56
2022-09-21T02:53:53.999Z,92850.09
2022-09-21T02:58:59.738Z,92855.31
2022-09-21T03:04:02.660Z,92853.09
2022-09-21T03:09:04.932Z,92850.34
2022-09-21T03:14:08.535Z,92850.00
2022-09-21T03:19:11.073Z,92846.78
2022-09-21T03:24:13.201Z,92829.19
2022-09-21T03:29:15.581Z,92849.31
2022-09-21T03:34:17.712Z,92844.19
2022-09-21T03:39:19.865Z,92841.88
2022-09-21T03:44:22.480Z,92838.09
2022-09-21T03:49:24.969Z,92845.91
2022-09-21T03:54:27.245Z,92811.63
2022-09-21T03:59:29.337Z,92802.63
2022-09-21T04:04:31.528Z,92822.34
2022-09-21T04:09:33.768Z,92827.28
2022-09-21T04:14:36.942Z,92830.44
2022-09-21T04:19:39.139Z,92837.16
2022-09-21T04:24:41.604Z,92842.09
2022-09-21T04:29:44.547Z,92844.25
2022-09-21T04:34:47.188Z,92831.47
2022-09-21T04:39:51.023Z,92836.03
2022-09-21T04:44:56.102Z,92838.69
2022-09-21T04:49:58.281Z,92822.13
2022-09-21T04:55:00.676Z,92826.69
2022-09-21T05:00:05.678Z,92839.81
2022-09-21T05:05:10.172Z,92839.00
2022-09-21T05:10:13.253Z,92847.59
2022-09-21T05:15:15.518Z,92822.34
2022-09-21T05:20:17.774Z,92825.16
2022-09-21T05:25:19.898Z,92857.22
2022-09-21T05:30:22.654Z,92851.16
2022-09-21T05:36:01.530Z,92857.25
2022-09-21T05:41:06.542Z,92842.84
2022-09-21T05:46:20.037Z,92858.44
2022-09-21T05:51:33.574Z,92846.38
2022-09-21T05:56:38.249Z,92848.25
2022-09-21T06:02:31.078Z,92847.97
2022-09-21T06:07:33.309Z,92853.47
2022-09-21T06:12:35.626Z,92863.00
2022-09-21T06:17:37.866Z,92854.53
2022-09-21T06:22:39.959Z,92868.31
2022-09-21T06:27:42.107Z,92849.97
2022-09-21T06:32:44.611Z,92866.84
2022-09-21T06:37:47.715Z,92866.69
2022-09-21T06:42:49.938Z,92844.25
2022-09-21T06:47:52.299Z,92863.00
2022-09-21T06:52:54.629Z,92839.66
2022-09-21T06:58:06.457Z,92877.00
2022-09-21T07:03:14.084Z,92869.72
2022-09-21T07:13:42.669Z,92882.72
2022-09-21T07:18:44.805Z,92878.25
2022-09-21T07:23:46.889Z,92879.91
2022-09-21T07:28:48.973Z,92870.13
2022-09-21T07:33:57.365Z,92873.59
2022-09-21T07:38:59.545Z,92868.34
2022-09-21T07:44:02.293Z,92868.16
2022-09-21T07:49:06.202Z,92868.88
2022-09-21T07:54:12.704Z,92878.78
2022-09-21T07:59:15.067Z,92874.44
2022-09-21T08:04:17.209Z,92873.75
2022-09-21T08:09:19.425Z,92856.34
2022-09-21T08:14:26.079Z,92874.25
2022-09-21T08:19:28.787Z,92854.41
2022-09-21T08:24:31.993Z,92859.06
2022-09-21T08:29:34.132Z,92870.13
2022-09-21T08:34:36.513Z,92870.84
2022-09-21T08:39:38.712Z,92873.69
2022-09-21T08:44:50.195Z,92880.44
2022-09-21T08:49:57.238Z,92884.03
2022-09-21T08:55:13.094Z,92875.09
2022-09-21T09:00:19.567Z,92866.75
2022-09-21T09:05:51.312Z,92876.91
2022-09-21T09:10:53.406Z,92862.59
2022-09-21T09:16:17.071Z,92863.69
2022-09-21T09:21:43.865Z,92859.75
2022-09-21T09:27:04.035Z,92872.88
2022-09-21T09:32:14.229Z,92861.81
2022-09-21T09:37:17.657Z,92866.22
2022-09-21T09:42:34.981Z,92855.88
2022-09-21T09:47:46.867Z,92850.13
2022-09-21T09:52:51.341Z,92843.84
2022-09-21T09:57:55.989Z,92827.66
2022-09-21T10:02:59.419Z,92831.94
2022-09-21T10:08:02.787Z,92827.72
2022-09-21T10:13:30.968Z,92819.09
2022-09-21T10:19:01.917Z,92820.41
2022-09-21T10:24:14.826Z,92822.44
2022-09-21T10:29:23.119Z,92819.69
2022-09-21T10:34:27.961Z,92762.69
2022-09-21T10:39:31.840Z,92808.34
2022-09-21T10:45:07.178Z,92811.31
2022-09-21T10:50:25.957Z,92792.25
2022-09-21T10:55:30.299Z,92798.53
2022-09-21T11:00:40.813Z,92800.75
2022-09-21T11:05:45.317Z,92794.94
2022-09-21T11:11:02.801Z,92808.13
2022-09-21T11:16:41.627Z,92797.41
2022-09-21T11:21:53.016Z,92801.06
2022-09-21T11:27:06.779Z,92797.22
2022-09-21T11:32:31.482Z,92797.31
2022-09-21T11:38:04.536Z,92796.69
2022-09-21T11:43:27.106Z,92784.97
2022-09-21T11:48:53.665Z,92783.84
2022-09-21T11:54:15.327Z,92791.31
2022-09-21T11:59:34.502Z,92775.25
2022-09-21T12:05:24.412Z,92675.28
2022-09-21T12:10:51.866Z,92779.19
2022-09-21T12:16:31.205Z,92803.09
2022-09-21T12:21:45.928Z,92710.13
2022-09-21T12:26:58.434Z,92798.59
2022-09-21T12:32:13.058Z,92802.31
2022-09-21T12:37:23.086Z,92793.13
2022-09-21T12:42:40.561Z,92801.50
2022-09-21T12:47:56.061Z,92792.88
2022-09-21T12:52:59.003Z,92803.59
2022-09-21T12:58:26.884Z,92804.22
2022-09-21T13:03:47.331Z,92806.22
2022-09-21T13:08:50.575Z,92805.97
2022-09-21T13:14:03.557Z,92773.75
2022-09-21T13:19:29.235Z,92788.72
2022-09-21T13:24:31.380Z,92804.53
2022-09-21T13:29:36.222Z,92796.63
2022-09-21T13:34:43.528Z,92807.56
2022-09-21T13:39:48.362Z,92810.59
2022-09-21T13:44:50.504Z,92777.34
2022-09-21T13:49:56.011Z,92794.41
2022-09-21T13:55:05.952Z,92811.03
2022-09-21T14:00:30.937Z,92795.78
2022-09-21T14:05:52.506Z,92799.69
2022-09-21T14:11:08.485Z,92814.88
2022-09-21T14:16:28.107Z,92777.56
2022-09-21T14:21:30.454Z,92790.28
2022-09-21T14:26:35.370Z,92807.53
2022-09-21T14:31:41.706Z,92794.38
2022-09-21T14:36:47.684Z,92815.81
2022-09-21T14:41:54.928Z,92827.53
2022-09-21T14:47:30.224Z,92819.19
2022-09-21T14:53:08.235Z,92833.19
2022-09-21T14:58:41.621Z,92827.50
2022-09-21T15:04:08.927Z,92830.94
2022-09-21T15:09:59.045Z,92821.25
2022-09-21T15:15:20.444Z,92834.78
2022-09-21T15:20:26.710Z,92830.34
2022-09-21T15:25:33.880Z,92837.50
2022-09-21T15:30:46.183Z,92794.75
2022-09-21T15:35:49.816Z,92826.19
2022-09-21T15:40:52.374Z,92847.16
2022-09-21T15:45:59.294Z,92845.63
2022-09-21T15:51:15.093Z,92848.34
2022-09-21T15:56:28.822Z,92846.59
2022-09-21T16:01:31.681Z,92856.97
2022-09-21T16:06:45.509Z,92851.28
2022-09-21T16:11:47.766Z,92857.66
2022-09-21T16:17:09.297Z,92860.66
2022-09-21T16:22:13.993Z,92869.03
2022-09-21T16:27:18.851Z,92869.75
2022-09-21T16:32:36.303Z,92869.69
2022-09-21T16:37:38.790Z,92860.06
2022-09-21T16:42:41.585Z,92876.69
2022-09-21T16:47:43.689Z,92887.22
2022-09-21T16:52:48.622Z,92886.81
2022-09-21T16:57:50.766Z,92879.91
2022-09-21T17:02:52.911Z,92888.41
2022-09-21T17:07:58.019Z,92887.13
2022-09-21T17:13:00.114Z,92892.25
2022-09-21T17:18:03.264Z,92894.56
2022-09-21T17:23:06.234Z,92891.47
2022-09-21T17:28:25.844Z,92881.81
2022-09-21T17:33:28.014Z,92881.31
2022-09-21T17:38:30.597Z,92886.31
2022-09-21T17:43:43.145Z,92883.84
2022-09-21T17:48:45.585Z,92875.09
2022-09-21T17:53:48.026Z,92889.16
2022-09-21T17:59:03.743Z,92893.75
2022-09-21T18:04:07.716Z,92888.16
2022-09-21T18:09:18.094Z,92912.19
2022-09-21T18:14:29.310Z,92906.50
2022-09-21T18:19:56.331Z,92910.44
2022-09-21T18:24:58.965Z,92890.81
2022-09-21T18:30:01.746Z,92906.16
2022-09-21T18:35:12.338Z,92899.41
2022-09-21T18:40:39.171Z,92912.59
2022-09-21T18:45:46.254Z,92908.06
2022-09-21T18:51:06.882Z,92907.06
2022-09-21T18:56:12.255Z,92896.81
2022-09-21T19:01:19.074Z,92917.72
2022-09-21T19:06:39.662Z,92915.63
2022-09-21T19:11:57.346Z,92918.69
2022-09-21T19:17:36.742Z,92935.13
2022-09-21T19:23:03.761Z,92932.94
2022-09-21T19:28:33.425Z,92933.88
2022-09-21T19:33:49.962Z,92921.53
2022-09-21T19:38:53.401Z,92906.16
2022-09-21T19:44:02.170Z,92932.22
2022-09-21T19:49:18.173Z,92930.84
2022-09-21T19:54:44.487Z,92940.88
2022-09-21T19:59:47.437Z,92931.19
2022-09-21T20:04:58.384Z,92935.03
2022-09-21T20:10:25.680Z,92935.59
2022-09-21T20:15:34.941Z,92935.00
2022-09-21T20:20:37.573Z,92936.03
2022-09-21T20:26:04.139Z,92923.56
2022-09-21T20:31:06.460Z,92926.16
2022-09-21T20:36:09.853Z,92917.63
2022-09-21T20:41:13.674Z,92929.34
2022-09-21T20:46:16.018Z,92930.66
2022-09-21T20:51:18.183Z,92930.63
2022-09-21T20:56:20.293Z,92933.66
2022-09-21T21:01:23.831Z,92929.22
2022-09-21T21:06:25.969Z,92929.09
2022-09-21T21:11:28.196Z,92927.72
2022-09-21T21:16:30.362Z,92929.09
2022-09-21T21:21:32.986Z,92926.59
2022-09-21T21:27:00.311Z,92923.47
2022-09-21T21:31:59.804Z,92919.22
2022-09-21T21:37:02.053Z,92920.44
2022-09-21T21:42:04.674Z,92921.53
2022-09-21T21:47:27.805Z,92922.84
2022-09-21T21:52:29.314Z,92922.47
2022-09-21T21:57:31.513Z,92919.38
2022-09-21T22:02:33.757Z,92915.75
2022-09-21T22:07:35.964Z,92912.72
2022-09-21T22:12:38.024Z,92913.38
2022-09-21T22:17:41.196Z,92916.56
2022-09-21T22:22:43.341Z,92911.06
2022-09-21T22:27:45.437Z,92901.47
2022-09-21T22:32:47.771Z,92903.59
2022-09-21T22:37:52.884Z,92905.31
2022-09-21T22:42:55.052Z,92881.78
2022-09-21T22:47:57.184Z,92894.88
2022-09-21T22:52:59.330Z,92890.47
2022-09-21T22:58:01.427Z,92881.00
2022-09-21T23:03:04.413Z,92889.56
2022-09-21T23:08:06.510Z,92894.59
2022-09-21T23:13:08.593Z,92893.91
2022-09-21T23:18:10.725Z,92867.53
2022-09-21T23:23:12.823Z,92833.06
2022-09-21T23:28:14.917Z,92896.59
2022-09-21T23:33:18.971Z,92897.97
2022-09-21T23:38:21.100Z,92899.09
2022-09-21T23:43:23.294Z,92873.78
2022-09-21T23:48:26.935Z,92901.03
2022-09-21T23:53:30.581Z,92899.75
2022-09-21T23:58:33.366Z,92880.34
